createdAt,value
2023-02-11T00:01:34.849Z,16.43
2023-02-11T00:04:03.060Z,16.27
2023-02-11T00:06:31.592Z,16.83
2023-02-11T00:08:59.441Z,15.30
2023-02-11T00:11:30.479Z,16.13
2023-02-11T00:13:58.457Z,16.33
2023-02-11T00:16:26.272Z,15.40
2023-02-11T00:18:54.302Z,16.87
2023-02-11T00:21:23.290Z,15.10
2023-02-11T00:23:51.382Z,16.87
2023-02-11T00:26:20.384Z,18.03
2023-02-11T00:28:50.478Z,17.43
2023-02-11T00:31:18.988Z,15.87
2023-02-11T00:33:46.900Z,16.60
2023-02-11T00:36:15.761Z,17.93
2023-02-11T00:38:44.071Z,17.33
2023-02-11T00:41:11.824Z,16.03
2023-02-11T00:43:39.855Z,17.23
2023-02-11T00:46:09.270Z,17.37
2023-02-11T00:48:37.100Z,16.83
2023-02-11T00:51:05.446Z,16.87
2023-02-11T00:53:33.479Z,16.77
2023-02-11T00:56:01.275Z,17.03
2023-02-11T00:58:29.410Z,16.90
2023-02-11T01:00:57.412Z,17.43
2023-02-11T01:03:26.660Z,18.33
2023-02-11T01:05:54.749Z,17.63
2023-02-11T01:08:22.624Z,18.70
2023-02-11T01:10:55.163Z,16.93
2023-02-11T01:13:23.125Z,17.40
2023-02-11T01:15:51.261Z,16.97
2023-02-11T01:18:19.252Z,16.57
2023-02-11T01:20:49.471Z,16.83
2023-02-11T01:23:17.239Z,17.80
2023-02-11T01:25:45.104Z,17.17
2023-02-11T01:28:17.029Z,18.70
2023-02-11T01:30:44.866Z,17.47
2023-02-11T01:33:12.720Z,17.60
2023-02-11T01:35:40.531Z,17.30
2023-02-11T01:38:14.378Z,17.53
2023-02-11T01:40:42.261Z,17.63
2023-02-11T01:43:11.706Z,19.60
2023-02-11T01:46:01.500Z,17.70
2023-02-11T01:48:30.662Z,18.80
2023-02-11T01:51:01.052Z,19.33
2023-02-11T01:53:48.471Z,19.50
2023-02-11T01:56:34.725Z,18.67
2023-02-11T01:59:04.924Z,18.37
2023-02-11T02:01:33.563Z,16.53
2023-02-11T02:04:02.837Z,18.33
2023-02-11T02:06:32.719Z,17.43
2023-02-11T02:09:03.329Z,17.47
2023-02-11T02:11:31.146Z,18.60
2023-02-11T02:13:59.006Z,19.17
2023-02-11T02:16:30.392Z,19.27
2023-02-11T02:19:04.421Z,18.37
2023-02-11T02:21:50.622Z,20.10
2023-02-11T02:24:28.919Z,18.50
2023-02-11T02:27:19.955Z,19.80
2023-02-11T02:30:04.214Z,18.63
2023-02-11T02:32:44.442Z,16.93
2023-02-11T02:35:15.517Z,18.67
2023-02-11T02:37:48.614Z,17.07
2023-02-11T02:40:18.125Z,19.43
2023-02-11T02:42:46.249Z,19.43
2023-02-11T02:45:14.556Z,19.47
2023-02-11T02:47:43.785Z,19.70
2023-02-11T02:50:11.899Z,19.57
2023-02-11T02:52:44.210Z,19.77
2023-02-11T02:55:26.922Z,18.57
2023-02-11T02:58:05.666Z,18.37
2023-02-11T03:00:35.970Z,18.80
2023-02-11T03:03:11.492Z,18.33
2023-02-11T03:05:43.492Z,18.20
2023-02-11T03:08:13.172Z,18.33
2023-02-11T03:10:43.699Z,18.47
2023-02-11T03:13:11.759Z,18.63
2023-02-11T03:15:42.481Z,18.50
2023-02-11T03:18:14.811Z,18.80
2023-02-11T03:20:43.548Z,18.23
2023-02-11T03:23:13.206Z,18.37
2023-02-11T03:25:43.340Z,18.43
2023-02-11T03:28:16.504Z,17.10
2023-02-11T03:30:45.541Z,16.87
2023-02-11T03:33:18.853Z,15.90
2023-02-11T03:35:50.469Z,18.63
2023-02-11T03:38:20.886Z,18.07
2023-02-11T03:40:48.910Z,18.63
2023-02-11T03:43:18.379Z,17.87
2023-02-11T03:45:47.184Z,17.93
2023-02-11T03:48:18.043Z,18.73
2023-02-11T03:50:46.534Z,17.77
2023-02-11T03:53:15.310Z,17.97
2023-02-11T03:55:44.144Z,17.97
2023-02-11T03:58:12.148Z,18.13
2023-02-11T04:00:41.186Z,18.60
2023-02-11T04:03:09.401Z,20.03
2023-02-11T04:05:38.745Z,18.07
2023-02-11T04:08:06.753Z,18.00
2023-02-11T04:10:34.580Z,18.83
2023-02-11T04:13:02.450Z,17.93
2023-02-11T04:15:30.322Z,17.73
2023-02-11T04:17:58.100Z,18.03
2023-02-11T04:20:25.886Z,17.87
2023-02-11T04:22:56.356Z,17.50
2023-02-11T04:25:24.158Z,17.40
2023-02-11T04:27:51.931Z,16.77
2023-02-11T04:30:19.769Z,18.57
2023-02-11T04:32:47.577Z,17.17
2023-02-11T04:35:15.398Z,17.30
2023-02-11T04:37:43.160Z,19.20
2023-02-11T04:40:12.708Z,19.03
2023-02-11T04:42:40.595Z,17.73
2023-02-11T04:45:08.787Z,18.70
2023-02-11T04:47:37.745Z,20.33
2023-02-11T04:50:05.654Z,19.07
2023-02-11T04:52:33.425Z,18.80
2023-02-11T04:55:01.242Z,17.47
2023-02-11T04:57:30.488Z,19.77
2023-02-11T04:59:58.304Z,17.90
2023-02-11T05:02:26.133Z,17.03
2023-02-11T05:04:53.919Z,16.70
2023-02-11T05:07:21.718Z,16.37
2023-02-11T05:09:49.472Z,16.53
2023-02-11T05:12:17.241Z,16.90
2023-02-11T05:14:46.376Z,16.77
2023-02-11T05:17:14.208Z,15.73
2023-02-11T05:19:42.923Z,15.73
2023-02-11T05:22:10.737Z,14.93
2023-02-11T05:24:38.546Z,13.83
2023-02-11T05:27:06.299Z,14.97
2023-02-11T05:29:34.156Z,15.80
2023-02-11T05:32:03.411Z,19.03
2023-02-11T05:34:31.170Z,15.40
2023-02-11T05:36:58.994Z,13.87
2023-02-11T05:39:26.752Z,14.60
2023-02-11T05:41:54.450Z,14.80
2023-02-11T05:44:22.232Z,15.07
2023-02-11T05:46:50.366Z,14.30
2023-02-11T05:49:19.587Z,13.03
2023-02-11T05:51:47.369Z,13.90
2023-02-11T05:54:15.152Z,15.70
2023-02-11T05:56:44.814Z,14.40
2023-02-11T05:59:13.629Z,14.13
2023-02-11T06:01:41.508Z,12.63
2023-02-11T06:04:09.274Z,13.67
2023-02-11T06:06:38.602Z,13.97
2023-02-11T06:09:06.386Z,12.77
2023-02-11T06:11:34.148Z,14.40
2023-02-11T06:14:02.551Z,14.33
2023-02-11T06:16:30.399Z,12.47
2023-02-11T06:18:58.259Z,11.13
2023-02-11T06:21:36.335Z,12.93
2023-02-11T06:24:12.013Z,12.53
2023-02-11T06:26:39.965Z,13.20
2023-02-11T06:29:07.884Z,14.20
2023-02-11T06:31:35.874Z,13.87
2023-02-11T06:34:03.715Z,14.33
2023-02-11T06:36:31.567Z,13.67
2023-02-11T06:38:59.384Z,13.60
2023-02-11T06:41:28.523Z,10.77
2023-02-11T06:43:56.310Z,12.17
2023-02-11T06:46:24.309Z,12.33
2023-02-11T06:48:52.047Z,12.00
2023-02-11T06:51:19.920Z,12.23
2023-02-11T06:53:48.289Z,12.50
2023-02-11T06:56:17.343Z,11.40
2023-02-11T06:58:46.574Z,10.93
2023-02-11T07:01:15.212Z,10.80
2023-02-11T07:03:44.283Z,11.23
2023-02-11T07:06:13.780Z,12.20
2023-02-11T07:08:42.597Z,12.37
2023-02-11T07:11:11.496Z,13.03
2023-02-11T07:13:39.364Z,12.03
2023-02-11T07:16:09.271Z,12.03
2023-02-11T07:18:37.054Z,10.33
2023-02-11T07:21:05.719Z,10.53
2023-02-11T07:23:33.693Z,10.87
2023-02-11T07:26:03.754Z,11.13
2023-02-11T07:28:31.734Z,10.17
2023-02-11T07:30:59.567Z,10.83
2023-02-11T07:33:28.768Z,10.20
2023-02-11T07:35:56.464Z,10.77
2023-02-11T07:38:24.192Z,10.57
2023-02-11T07:40:51.935Z,10.80
2023-02-11T07:43:19.718Z,9.03
2023-02-11T07:45:47.469Z,10.17
2023-02-11T07:48:15.314Z,10.53
2023-02-11T07:50:44.500Z,12.70
2023-02-11T07:53:12.275Z,12.03
2023-02-11T07:55:40.077Z,12.20
2023-02-11T07:58:07.880Z,9.20
2023-02-11T08:00:35.694Z,10.50
2023-02-11T08:03:03.814Z,11.33
2023-02-11T08:05:31.769Z,12.03
2023-02-11T08:08:00.837Z,10.53
2023-02-11T08:10:28.608Z,10.17
2023-02-11T08:12:56.355Z,10.63
2023-02-11T08:15:24.211Z,10.10
2023-02-11T08:17:51.986Z,10.63
2023-02-11T08:20:19.845Z,11.40
2023-02-11T08:22:47.631Z,9.70
2023-02-11T08:25:16.844Z,10.37
2023-02-11T08:27:44.683Z,10.33
2023-02-11T08:30:13.048Z,10.47
2023-02-11T08:32:40.815Z,10.03
2023-02-11T08:35:09.265Z,10.47
2023-02-11T08:37:37.054Z,8.70
2023-02-11T08:40:05.463Z,10.03
2023-02-11T08:42:34.601Z,9.70
2023-02-11T08:45:02.305Z,10.70
2023-02-11T08:47:29.980Z,9.40
2023-02-11T08:49:57.733Z,9.10
2023-02-11T08:52:25.701Z,8.80
2023-02-11T08:54:53.461Z,9.80
2023-02-11T08:57:21.262Z,10.17
2023-02-11T08:59:50.493Z,8.33
2023-02-11T09:02:19.120Z,10.10
2023-02-11T09:04:46.909Z,9.80
2023-02-11T09:07:14.656Z,9.97
2023-02-11T09:09:42.417Z,9.87
2023-02-11T09:12:10.300Z,10.50
2023-02-11T09:14:38.452Z,8.53
2023-02-11T09:17:07.730Z,9.73
2023-02-11T09:19:35.498Z,8.03
2023-02-11T09:22:03.300Z,9.00
2023-02-11T09:24:31.043Z,9.40
2023-02-11T09:26:58.792Z,9.87
2023-02-11T09:29:26.554Z,8.27
2023-02-11T09:31:54.333Z,8.63
2023-02-11T09:34:23.644Z,9.40
2023-02-11T09:36:51.453Z,8.00
2023-02-11T09:39:20.592Z,8.17
2023-02-11T09:41:56.152Z,7.87
2023-02-11T09:44:25.206Z,8.20
2023-02-11T09:46:55.918Z,7.97
2023-02-11T09:49:28.531Z,8.13
2023-02-11T09:51:59.034Z,8.47
2023-02-11T09:54:30.453Z,7.80
2023-02-11T09:56:58.189Z,7.37
2023-02-11T09:59:25.927Z,7.10
2023-02-11T10:01:57.566Z,7.33
2023-02-11T10:04:35.572Z,7.20
2023-02-11T10:07:07.396Z,6.73
2023-02-11T10:09:50.107Z,7.10
2023-02-11T10:12:23.499Z,6.43
2023-02-11T10:15:06.369Z,7.20
2023-02-11T10:17:38.634Z,6.67
2023-02-11T10:20:17.186Z,7.00
2023-02-11T10:22:46.954Z,6.90
2023-02-11T10:25:19.665Z,6.40
2023-02-11T10:27:47.522Z,9.00
2023-02-11T10:30:20.434Z,8.03
2023-02-11T10:32:50.156Z,6.83
2023-02-11T10:35:21.453Z,7.80
2023-02-11T10:37:49.661Z,7.13
2023-02-11T10:40:18.688Z,7.97
2023-02-11T10:42:49.078Z,7.50
2023-02-11T10:45:19.020Z,8.00
2023-02-11T10:47:46.801Z,8.83
2023-02-11T10:50:23.816Z,8.63
2023-02-11T10:52:51.626Z,9.30
2023-02-11T10:55:20.948Z,9.03
2023-02-11T10:57:53.962Z,9.20
2023-02-11T11:00:24.962Z,9.10
2023-02-11T11:02:57.247Z,8.83
2023-02-11T11:05:29.634Z,8.17
2023-02-11T11:07:58.189Z,7.40
2023-02-11T11:10:44.403Z,5.37
2023-02-11T11:13:25.668Z,5.10
2023-02-11T11:16:09.878Z,6.30
2023-02-11T11:18:41.238Z,6.67
2023-02-11T11:21:14.806Z,5.63
2023-02-11T11:23:47.808Z,4.90
2023-02-11T11:26:16.618Z,4.77
2023-02-11T11:28:52.176Z,4.93
2023-02-11T11:31:21.550Z,4.90
2023-02-11T11:33:49.535Z,5.37
2023-02-11T11:36:21.501Z,4.60
2023-02-11T11:38:50.441Z,4.40
2023-02-11T11:41:20.024Z,5.07
2023-02-11T11:43:57.482Z,3.80
2023-02-11T11:46:26.473Z,4.57
2023-02-11T11:48:57.129Z,4.40
2023-02-11T11:51:27.309Z,3.77
2023-02-11T11:53:58.621Z,3.83
2023-02-11T11:56:27.636Z,3.40
2023-02-11T11:58:55.521Z,3.57
2023-02-11T12:01:30.827Z,3.77
2023-02-11T12:04:25.865Z,3.77
2023-02-11T12:07:02.153Z,3.80
2023-02-11T12:09:32.680Z,3.57
2023-02-11T12:12:09.997Z,4.00
2023-02-11T12:14:44.608Z,4.20
2023-02-11T12:17:16.761Z,3.73
2023-02-11T12:20:02.570Z,3.30
2023-02-11T12:22:43.082Z,3.00
2023-02-11T12:25:26.531Z,3.20
2023-02-11T12:27:58.638Z,2.80
2023-02-11T12:30:44.139Z,3.37
2023-02-11T12:33:16.494Z,2.90
2023-02-11T12:35:49.430Z,2.73
2023-02-11T12:38:28.976Z,3.00
2023-02-11T12:41:01.832Z,3.10
2023-02-11T12:43:38.851Z,3.10
2023-02-11T12:46:15.843Z,2.87
2023-02-11T12:48:55.732Z,3.10
2023-02-11T12:51:27.137Z,2.93
2023-02-11T12:54:11.819Z,3.20
2023-02-11T12:56:47.623Z,2.57
2023-02-11T12:59:18.486Z,2.90
2023-02-11T13:01:46.372Z,2.90
2023-02-11T13:04:17.313Z,3.27
2023-02-11T13:06:46.555Z,3.10
2023-02-11T13:09:18.977Z,2.93
2023-02-11T13:11:52.042Z,2.83
2023-02-11T13:14:25.511Z,3.00
2023-02-11T13:16:54.144Z,3.23
2023-02-11T13:19:27.475Z,2.07
2023-02-11T13:22:03.938Z,2.83
2023-02-11T13:24:40.895Z,3.23
2023-02-11T13:27:24.245Z,2.90
2023-02-11T13:30:08.617Z,2.77
2023-02-11T13:32:56.002Z,2.90
2023-02-11T13:35:30.585Z,2.93
2023-02-11T13:37:59.084Z,2.93
2023-02-11T13:40:30.061Z,2.90
2023-02-11T13:42:59.048Z,3.30
2023-02-11T13:45:30.241Z,3.60
2023-02-11T13:47:58.807Z,3.30
2023-02-11T13:50:27.407Z,3.00
2023-02-11T13:52:59.774Z,3.40
2023-02-11T13:55:29.277Z,3.30
2023-02-11T13:58:17.394Z,3.30
2023-02-11T14:00:48.285Z,3.40
2023-02-11T14:03:44.747Z,3.60
2023-02-11T14:06:38.680Z,3.73
2023-02-11T14:09:33.639Z,3.90
2023-02-11T14:12:19.803Z,3.20
2023-02-11T14:15:19.168Z,3.33
2023-02-11T14:17:46.910Z,3.30
2023-02-11T14:20:38.683Z,3.30
2023-02-11T14:23:10.926Z,3.30
2023-02-11T14:25:43.245Z,3.30
2023-02-11T14:28:16.464Z,3.60
2023-02-11T14:30:49.897Z,3.40
2023-02-11T14:33:24.034Z,4.10
2023-02-11T14:35:56.199Z,3.90
2023-02-11T14:38:28.012Z,4.10
2023-02-11T14:40:59.518Z,4.43
2023-02-11T14:43:29.692Z,4.23
2023-02-11T14:45:59.714Z,4.70
2023-02-11T14:48:29.411Z,5.03
2023-02-11T14:51:00.090Z,4.63
2023-02-11T14:53:29.665Z,5.10
2023-02-11T14:55:57.747Z,4.97
2023-02-11T14:58:26.331Z,5.70
2023-02-11T15:00:55.570Z,5.80
2023-02-11T15:03:31.929Z,5.57
2023-02-11T15:06:00.458Z,5.83
2023-02-11T15:08:28.539Z,6.07
2023-02-11T15:10:56.878Z,6.03
2023-02-11T15:13:27.265Z,5.73
2023-02-11T15:15:56.837Z,6.00
2023-02-11T15:18:26.608Z,5.97
2023-02-11T15:20:55.926Z,6.00
2023-02-11T15:23:24.675Z,6.10
2023-02-11T15:25:55.919Z,6.30
2023-02-11T15:28:24.969Z,6.23
2023-02-11T15:31:00.438Z,5.73
2023-02-11T15:33:30.177Z,6.00
2023-02-11T15:35:59.779Z,6.43
2023-02-11T15:38:27.663Z,6.67
2023-02-11T15:40:56.618Z,6.30
2023-02-11T15:43:24.546Z,6.33
2023-02-11T15:45:58.150Z,6.70
2023-02-11T15:48:27.595Z,6.23
2023-02-11T15:50:56.801Z,6.50
2023-02-11T15:53:29.108Z,6.30
2023-02-11T15:56:02.773Z,6.13
2023-02-11T15:58:30.626Z,6.17
2023-02-11T16:01:00.085Z,6.53
2023-02-11T16:03:32.585Z,6.63
2023-02-11T16:06:15.372Z,6.70
2023-02-11T16:08:44.644Z,7.07
2023-02-11T16:11:21.307Z,7.20
2023-02-11T16:13:49.077Z,5.50
2023-02-11T16:16:19.630Z,6.60
2023-02-11T16:18:58.596Z,7.20
2023-02-11T16:21:34.897Z,6.70
2023-02-11T16:24:04.742Z,6.37
2023-02-11T16:26:34.151Z,6.37
2023-02-11T16:29:20.316Z,7.23
2023-02-11T16:31:48.847Z,7.40
2023-02-11T16:34:17.530Z,7.50
2023-02-11T16:36:48.507Z,7.87
2023-02-11T16:39:21.690Z,7.67
2023-02-11T16:41:50.620Z,7.10
2023-02-11T16:44:18.385Z,7.80
2023-02-11T16:46:47.403Z,7.63
2023-02-11T16:49:18.630Z,7.53
2023-02-11T16:51:49.517Z,7.30
2023-02-11T16:54:30.932Z,6.90
2023-02-11T16:56:59.026Z,7.30
2023-02-11T16:59:26.987Z,7.33
2023-02-11T17:01:55.999Z,7.90
2023-02-11T17:04:25.860Z,6.93
2023-02-11T17:06:54.958Z,7.00
2023-02-11T17:09:27.804Z,6.90
2023-02-11T17:11:57.614Z,6.80
2023-02-11T17:14:25.443Z,7.00
2023-02-11T17:16:55.901Z,7.40
2023-02-11T17:19:23.680Z,7.07
2023-02-11T17:21:52.813Z,7.37
2023-02-11T17:24:21.035Z,7.53
2023-02-11T17:26:50.886Z,7.80
2023-02-11T17:29:20.512Z,7.43
2023-02-11T17:31:48.446Z,8.00
2023-02-11T17:34:17.816Z,7.47
2023-02-11T17:36:45.728Z,8.23
2023-02-11T17:39:13.523Z,8.17
2023-02-11T17:41:41.494Z,8.20
2023-02-11T17:44:12.443Z,7.97
2023-02-11T17:46:40.342Z,8.07
2023-02-11T17:49:08.049Z,8.40
2023-02-11T17:51:37.621Z,8.80
2023-02-11T17:54:06.788Z,8.67
2023-02-11T17:56:35.241Z,9.80
2023-02-11T17:59:03.343Z,10.07
2023-02-11T18:01:33.496Z,9.07
2023-02-11T18:04:01.837Z,9.67
2023-02-11T18:06:29.853Z,9.60
2023-02-11T18:08:59.748Z,9.70
2023-02-11T18:11:28.138Z,9.13
2023-02-11T18:13:56.102Z,9.10
2023-02-11T18:16:25.173Z,9.33
2023-02-11T18:18:54.490Z,9.10
2023-02-11T18:21:22.919Z,9.70
2023-02-11T18:23:50.851Z,9.83
2023-02-11T18:26:20.164Z,9.87
2023-02-11T18:28:48.024Z,10.00
2023-02-11T18:31:15.980Z,9.17
2023-02-11T18:33:44.111Z,10.23
2023-02-11T18:36:14.909Z,9.43
2023-02-11T18:38:44.242Z,8.73
2023-02-11T18:41:12.273Z,9.90
2023-02-11T18:43:40.312Z,9.50
2023-02-11T18:46:09.789Z,9.83
2023-02-11T18:48:37.990Z,9.30
2023-02-11T18:51:09.362Z,10.30
2023-02-11T18:53:38.562Z,10.37
2023-02-11T18:56:10.258Z,10.37
2023-02-11T18:58:38.767Z,9.60
2023-02-11T19:01:11.362Z,10.47
2023-02-11T19:03:39.260Z,10.50
2023-02-11T19:06:07.385Z,11.00
2023-02-11T19:08:35.161Z,11.70
2023-02-11T19:11:05.498Z,9.87
2023-02-11T19:13:33.369Z,9.23
2023-02-11T19:16:01.148Z,11.33
2023-02-11T19:18:28.857Z,10.43
2023-02-11T19:20:56.678Z,9.90
2023-02-11T19:23:24.390Z,10.33
2023-02-11T19:25:52.361Z,9.87
2023-02-11T19:28:21.842Z,10.60
2023-02-11T19:30:49.685Z,9.77
2023-02-11T19:33:17.477Z,9.20
2023-02-11T19:35:45.563Z,9.77
2023-02-11T19:38:15.290Z,9.43
2023-02-11T19:40:43.030Z,10.20
2023-02-11T19:43:10.751Z,9.40
2023-02-11T19:45:39.811Z,9.87
2023-02-11T19:48:07.654Z,10.30
2023-02-11T19:50:35.529Z,10.13
2023-02-11T19:53:03.292Z,9.97
2023-02-11T19:55:30.985Z,10.17
2023-02-11T19:57:58.715Z,10.10
2023-02-11T20:00:26.467Z,10.57
2023-02-11T20:02:55.690Z,10.00
2023-02-11T20:05:23.487Z,9.37
2023-02-11T20:07:51.240Z,11.50
2023-02-11T20:10:19.065Z,10.47
2023-02-11T20:12:46.857Z,10.67
2023-02-11T20:15:14.636Z,10.57
2023-02-11T20:17:42.347Z,10.90
2023-02-11T20:20:13.020Z,10.33
2023-02-11T20:22:40.798Z,10.23
2023-02-11T20:25:10.870Z,10.77
2023-02-11T20:27:38.662Z,10.37
2023-02-11T20:30:06.771Z,10.63
2023-02-11T20:32:38.186Z,9.23
2023-02-11T20:35:09.728Z,10.30
2023-02-11T20:37:40.218Z,10.43
2023-02-11T20:40:08.927Z,10.57
2023-02-11T20:42:36.690Z,9.93
2023-02-11T20:45:04.641Z,10.53
2023-02-11T20:47:32.533Z,11.50
2023-02-11T20:50:00.224Z,10.57
2023-02-11T20:52:28.882Z,10.67
2023-02-11T20:54:58.153Z,10.77
2023-02-11T20:57:25.884Z,11.07
2023-02-11T20:59:53.622Z,9.93
2023-02-11T21:02:23.596Z,10.53
2023-02-11T21:04:52.492Z,10.23
2023-02-11T21:07:20.396Z,11.60
2023-02-11T21:09:48.139Z,11.00
2023-02-11T21:12:17.378Z,11.93
2023-02-11T21:14:45.338Z,11.30
2023-02-11T21:17:13.445Z,11.10
2023-02-11T21:19:41.497Z,11.43
2023-02-11T21:22:09.565Z,11.50
2023-02-11T21:24:37.308Z,10.70
2023-02-11T21:27:05.019Z,10.90
2023-02-11T21:29:40.427Z,11.63
2023-02-11T21:32:13.723Z,11.13
2023-02-11T21:34:41.533Z,11.00
2023-02-11T21:37:09.260Z,11.43
2023-02-11T21:39:37.014Z,10.83
2023-02-11T21:42:04.813Z,11.10
2023-02-11T21:44:32.804Z,11.20
2023-02-11T21:47:02.042Z,11.50
2023-02-11T21:49:30.166Z,10.93
2023-02-11T21:51:57.844Z,10.60
2023-02-11T21:54:32.010Z,11.70
2023-02-11T21:56:59.869Z,11.60
2023-02-11T21:59:29.381Z,11.70
2023-02-11T22:01:58.811Z,11.63
2023-02-11T22:04:28.129Z,11.93
2023-02-11T22:06:55.852Z,11.63
2023-02-11T22:09:23.523Z,12.03
2023-02-11T22:11:51.259Z,11.80
2023-02-11T22:14:19.210Z,11.73
2023-02-11T22:16:47.253Z,11.77
2023-02-11T22:19:15.276Z,12.30
2023-02-11T22:21:44.441Z,11.47
2023-02-11T22:24:12.144Z,11.20
2023-02-11T22:26:39.996Z,11.73
2023-02-11T22:29:07.784Z,10.77
2023-02-11T22:31:35.766Z,11.53
2023-02-11T22:34:04.224Z,11.80
2023-02-11T22:36:33.217Z,10.47
2023-02-11T22:39:03.034Z,12.27
2023-02-11T22:41:30.705Z,11.57
2023-02-11T22:43:58.425Z,11.53
2023-02-11T22:46:26.679Z,11.70
2023-02-11T22:48:55.011Z,11.27
2023-02-11T22:51:23.795Z,12.57
2023-02-11T22:53:52.081Z,11.93
2023-02-11T22:56:21.647Z,12.80
2023-02-11T22:58:49.619Z,11.20
2023-02-11T23:01:17.805Z,11.03
2023-02-11T23:03:46.059Z,12.27
2023-02-11T23:06:13.815Z,13.07
2023-02-11T23:08:43.004Z,11.97
2023-02-11T23:11:11.911Z,12.37
2023-02-11T23:13:41.454Z,12.03
2023-02-11T23:16:10.373Z,12.00
2023-02-11T23:18:38.821Z,12.07
2023-02-11T23:21:08.213Z,12.60
2023-02-11T23:23:36.793Z,13.33
2023-02-11T23:26:04.568Z,14.20
2023-02-11T23:28:32.380Z,13.80
2023-02-11T23:31:01.523Z,12.47
2023-02-11T23:33:30.939Z,13.83
2023-02-11T23:35:58.701Z,12.83
2023-02-11T23:38:26.551Z,14.57
2023-02-11T23:40:54.278Z,13.37
2023-02-11T23:43:24.326Z,13.77
2023-02-11T23:45:53.304Z,12.53
2023-02-11T23:48:22.691Z,13.47
2023-02-11T23:50:50.364Z,13.73
2023-02-11T23:53:18.145Z,12.30
2023-02-11T23:55:47.060Z,13.27
2023-02-11T23:58:15.272Z,13.57
